Time;durP1;ratioP1;P1;durP2;ratioP2;P2;SDS_P1;SDS_P2;PMS_P1;PMS_P2;Temp;Humidity;BMP_temperature;BMP_pressure;BME280_temperature;BME280_humidity;BME280_pressure;Samples;Min_cycle;Max_cycle;Signal;HPM_P1;HPM_P2
2022/03/13 00:00:11;;;;;;;;;;;7.90;99.90;;;;;;5070543;28;19932;-59
2022/03/13 00:02:39;;;;;;;;;;;7.90;99.90;;;;;;5068631;28;20396;-61
2022/03/13 00:05:08;;;;;;;;;;;7.90;99.90;;;;;;5070332;28;19925;-59
2022/03/13 00:07:37;;;;;;;;;;;7.90;99.90;;;;;;5071982;28;19932;-59
2022/03/13 00:10:03;;;;;;;;;;;7.80;99.90;;;;;;5071983;28;19924;-59
2022/03/13 00:12:32;;;;;;;;;;;7.80;99.90;;;;;;5071843;28;20405;-60
2022/03/13 00:15:02;;;;;;;;;;;7.70;99.90;;;;;;5071575;28;20151;-59
2022/03/13 00:17:28;;;;;;;;;;;7.70;99.90;;;;;;5071880;28;19929;-61
2022/03/13 00:19:55;;;;;;;;;;;7.70;99.90;;;;;;5071421;28;19925;-58
2022/03/13 00:22:20;;;;;;;;;;;7.70;99.90;;;;;;5072960;28;19964;-59
2022/03/13 00:24:46;;;;;;;;;;;7.60;99.90;;;;;;5070715;28;19975;-57
2022/03/13 00:27:12;;;;;;;;;;;7.60;99.90;;;;;;5072756;28;19925;-58
2022/03/13 00:29:39;;;;;;;;;;;7.60;99.90;;;;;;5071525;28;19956;-61
2022/03/13 00:32:05;;;;;;;;;;;7.60;99.90;;;;;;5054709;28;19932;-58
2022/03/13 00:34:31;;;;;;;;;;;7.60;99.90;;;;;;5071937;28;19929;-58
2022/03/13 00:36:57;;;;;;;;;;;7.60;99.90;;;;;;5072284;28;20026;-57
2022/03/13 00:39:22;;;;;;;;;;;7.60;99.90;;;;;;5071173;28;20297;-60
2022/03/13 00:41:48;;;;;;;;;;;7.70;99.90;;;;;;5072043;28;19971;-59
2022/03/13 00:44:13;;;;;;;;;;;7.60;99.90;;;;;;5054650;28;19924;-60
2022/03/13 00:46:39;;;;;;;;;;;7.70;99.90;;;;;;5072390;28;19925;-60
2022/03/13 00:49:06;;;;;;;;;;;7.60;99.90;;;;;;5072050;28;19983;-60
2022/03/13 00:51:31;;;;;;;;;;;7.60;99.90;;;;;;5072608;28;19936;-59
2022/03/13 00:53:57;;;;;;;;;;;7.60;99.90;;;;;;5070395;28;19924;-60
2022/03/13 00:56:22;;;;;;;;;;;7.60;99.90;;;;;;5072234;28;20286;-60
2022/03/13 00:58:48;;;;;;;;;;;7.60;99.90;;;;;;5070932;28;19931;-59
2022/03/13 01:01:14;;;;;;;;;;;7.60;99.90;;;;;;5072531;28;19924;-60
2022/03/13 01:03:40;;;;;;;;;;;7.60;99.90;;;;;;5071852;28;19989;-60
2022/03/13 01:06:07;;;;;;;;;;;7.50;99.90;;;;;;5070875;28;20007;-59
2022/03/13 01:08:33;;;;;;;;;;;7.50;99.90;;;;;;5071021;28;19978;-59
2022/03/13 01:11:00;;;;;;;;;;;7.50;99.90;;;;;;5071676;28;19928;-59
2022/03/13 01:13:26;;;;;;;;;;;7.50;99.90;;;;;;5071219;28;19986;-59
2022/03/13 01:15:59;;;;;;;;;;;7.60;99.90;;;;;;5071587;28;19928;-59
2022/03/13 01:18:24;;;;;;;;;;;7.60;99.90;;;;;;5070820;28;19925;-60
2022/03/13 01:20:50;;;;;;;;;;;7.50;99.90;;;;;;5053529;28;19970;-60
2022/03/13 01:23:15;;;;;;;;;;;7.50;99.90;;;;;;5071343;28;19939;-60
2022/03/13 01:25:41;;;;;;;;;;;7.50;99.90;;;;;;5071896;28;19928;-59
2022/03/13 01:28:07;;;;;;;;;;;7.50;99.90;;;;;;5071453;28;19920;-59
2022/03/13 01:30:32;;;;;;;;;;;7.50;99.90;;;;;;5070673;28;20037;-58
2022/03/13 01:32:58;;;;;;;;;;;7.40;99.90;;;;;;5070141;28;20006;-60
2022/03/13 01:35:24;;;;;;;;;;;7.50;99.90;;;;;;5071783;28;19924;-60
2022/03/13 01:37:51;;;;;;;;;;;7.40;99.90;;;;;;5070175;28;19935;-60
2022/03/13 01:40:21;;;;;;;;;;;7.50;99.90;;;;;;5071694;28;19951;-60
2022/03/13 01:42:48;;;;;;;;;;;7.40;99.90;;;;;;5071484;28;19925;-60
2022/03/13 01:45:18;;;;;;;;;;;7.40;99.90;;;;;;5070277;28;19924;-60
2022/03/13 01:47:44;;;;;;;;;;;7.40;99.90;;;;;;5071639;28;19924;-59
2022/03/13 01:50:10;;;;;;;;;;;7.40;99.90;;;;;;5070358;28;20021;-59
2022/03/13 01:52:37;;;;;;;;;;;7.50;99.90;;;;;;5070497;28;20380;-60
2022/03/13 01:55:03;;;;;;;;;;;7.50;99.90;;;;;;5071130;28;19948;-59
2022/03/13 01:57:28;;;;;;;;;;;7.50;99.90;;;;;;5053836;28;20369;-59
2022/03/13 01:59:57;;;;;;;;;;;7.50;99.90;;;;;;5069909;28;19924;-60
2022/03/13 02:02:24;;;;;;;;;;;7.60;99.90;;;;;;5071180;28;20419;-61
2022/03/13 02:04:51;;;;;;;;;;;7.50;99.90;;;;;;5053855;28;19924;-60
2022/03/13 02:07:17;;;;;;;;;;;7.50;99.90;;;;;;5053719;28;19979;-59
2022/03/13 02:09:43;;;;;;;;;;;7.50;99.90;;;;;;5071570;28;19925;-58
2022/03/13 02:12:09;;;;;;;;;;;7.50;99.90;;;;;;5069956;28;21004;-60
2022/03/13 02:14:34;;;;;;;;;;;7.50;99.90;;;;;;5071913;28;20015;-60
2022/03/13 02:17:00;;;;;;;;;;;7.50;99.90;;;;;;5070003;28;20011;-57
2022/03/13 02:19:25;;;;;;;;;;;7.50;99.90;;;;;;5071893;28;20316;-59
2022/03/13 02:21:52;;;;;;;;;;;7.50;99.90;;;;;;5054027;28;19952;-60
2022/03/13 02:24:24;;;;;;;;;;;7.50;99.90;;;;;;5104284;28;20368;-59
2022/03/13 02:26:56;;;;;;;;;;;7.50;99.90;;;;;;5073896;28;19932;-60
2022/03/13 02:29:22;;;;;;;;;;;7.50;99.90;;;;;;5074373;28;19975;-59
2022/03/13 02:31:47;;;;;;;;;;;7.50;99.90;;;;;;5075181;28;19975;-60
2022/03/13 02:34:15;;;;;;;;;;;7.50;99.90;;;;;;5073525;28;19931;-60
2022/03/13 02:36:46;;;;;;;;;;;7.50;99.90;;;;;;5075120;28;19925;-59
2022/03/13 02:39:12;;;;;;;;;;;7.50;99.90;;;;;;5073485;28;19978;-60
2022/03/13 02:41:40;;;;;;;;;;;7.50;99.90;;;;;;5075155;28;20015;-60
2022/03/13 02:44:07;;;;;;;;;;;7.50;99.90;;;;;;5073072;28;20429;-57
2022/03/13 02:46:47;;;;;;;;;;;7.50;99.90;;;;;;5073756;28;19977;-60
2022/03/13 02:49:14;;;;;;;;;;;7.50;99.90;;;;;;5073400;28;19931;-59
2022/03/13 02:51:41;;;;;;;;;;;7.50;99.90;;;;;;5073685;28;19925;-59
2022/03/13 02:54:07;;;;;;;;;;;7.40;99.90;;;;;;5073266;28;19924;-60
2022/03/13 02:56:33;;;;;;;;;;;7.40;99.90;;;;;;5074652;28;19924;-60
2022/03/13 02:58:58;;;;;;;;;;;7.40;99.90;;;;;;5074509;28;19920;-59
2022/03/13 03:01:24;;;;;;;;;;;7.40;99.90;;;;;;5075159;28;20369;-60
2022/03/13 03:03:52;;;;;;;;;;;7.40;99.90;;;;;;5074708;28;19925;-59
2022/03/13 03:06:18;;;;;;;;;;;7.40;99.90;;;;;;5073061;28;19932;-60
2022/03/13 03:08:44;;;;;;;;;;;7.40;99.90;;;;;;5074700;28;19931;-59
2022/03/13 03:11:12;;;;;;;;;;;7.40;99.90;;;;;;5073068;28;20699;-58
2022/03/13 03:13:38;;;;;;;;;;;7.30;99.90;;;;;;5072928;28;19924;-60
2022/03/13 03:16:03;;;;;;;;;;;7.40;99.90;;;;;;5074105;28;19976;-60
2022/03/13 03:18:29;;;;;;;;;;;7.40;99.90;;;;;;5074552;28;20015;-59
2022/03/13 03:20:55;;;;;;;;;;;7.30;99.90;;;;;;5073128;28;20442;-58
2022/03/13 03:23:21;;;;;;;;;;;7.30;99.90;;;;;;5073933;28;19932;-59
2022/03/13 03:25:46;;;;;;;;;;;7.30;99.90;;;;;;5056664;28;20008;-59
2022/03/13 03:28:14;;;;;;;;;;;7.20;99.90;;;;;;5073880;28;19928;-59
2022/03/13 03:30:40;;;;;;;;;;;7.30;99.90;;;;;;5074166;28;19925;-59
2022/03/13 03:33:06;;;;;;;;;;;7.20;99.90;;;;;;5073852;28;19924;-59
2022/03/13 03:35:31;;;;;;;;;;;7.10;99.90;;;;;;5072872;28;20001;-59
2022/03/13 03:37:57;;;;;;;;;;;7.10;99.90;;;;;;5072771;28;19924;-57
2022/03/13 03:40:24;;;;;;;;;;;7.10;99.90;;;;;;5106116;28;19924;-59
2022/03/13 03:42:49;;;;;;;;;;;7.10;99.90;;;;;;5074188;28;20019;-58
2022/03/13 03:45:17;;;;;;;;;;;7.10;99.90;;;;;;5073772;28;20367;-57
2022/03/13 03:47:46;;;;;;;;;;;7.10;99.90;;;;;;5073818;28;19924;-58
2022/03/13 03:50:12;;;;;;;;;;;7.00;99.90;;;;;;5073363;28;19934;-58
2022/03/13 03:52:37;;;;;;;;;;;7.10;99.90;;;;;;5073620;28;19925;-61
2022/03/13 03:55:03;;;;;;;;;;;7.00;99.90;;;;;;5073712;28;19931;-58
2022/03/13 03:57:29;;;;;;;;;;;7.00;99.90;;;;;;5073404;28;19931;-58
2022/03/13 03:59:54;;;;;;;;;;;7.00;99.90;;;;;;5073074;28;20245;-58
2022/03/13 04:02:20;;;;;;;;;;;6.90;99.90;;;;;;5073071;28;19925;-58
2022/03/13 04:04:46;;;;;;;;;;;6.90;99.90;;;;;;5073475;28;19924;-59
2022/03/13 04:07:13;;;;;;;;;;;6.90;99.90;;;;;;5073063;28;19990;-58
2022/03/13 04:09:38;;;;;;;;;;;6.90;99.90;;;;;;5073326;28;19949;-59
2022/03/13 04:12:07;;;;;;;;;;;6.80;99.90;;;;;;5073087;28;19920;-59
2022/03/13 04:14:34;;;;;;;;;;;6.80;99.90;;;;;;5071927;28;19969;-57
2022/03/13 04:16:59;;;;;;;;;;;6.80;99.90;;;;;;5073235;28;19932;-60
2022/03/13 04:19:28;;;;;;;;;;;6.70;99.90;;;;;;5071542;28;19924;-59
2022/03/13 04:21:54;;;;;;;;;;;6.70;99.90;;;;;;5073222;28;20003;-57
2022/03/13 04:24:20;;;;;;;;;;;6.70;99.90;;;;;;5072794;28;19924;-59
2022/03/13 04:26:46;;;;;;;;;;;6.70;99.90;;;;;;5073152;28;19924;-59
2022/03/13 04:29:12;;;;;;;;;;;6.60;99.90;;;;;;5072531;28;19931;-57
2022/03/13 04:31:41;;;;;;;;;;;6.60;99.90;;;;;;5054935;28;19993;-57
2022/03/13 04:34:06;;;;;;;;;;;6.60;99.90;;;;;;5072949;28;19935;-59
2022/03/13 04:36:33;;;;;;;;;;;6.50;99.90;;;;;;5072628;28;20277;-59
2022/03/13 04:39:02;;;;;;;;;;;6.50;99.90;;;;;;5071587;28;19928;-63
2022/03/13 04:41:28;;;;;;;;;;;6.50;99.90;;;;;;5072322;28;19925;-59
2022/03/13 04:43:54;;;;;;;;;;;6.40;99.90;;;;;;5072375;28;19924;-59
2022/03/13 04:46:19;;;;;;;;;;;6.40;99.90;;;;;;5070941;28;19924;-59
2022/03/13 04:48:45;;;;;;;;;;;6.40;99.90;;;;;;5071787;28;20396;-59
2022/03/13 04:51:11;;;;;;;;;;;6.30;99.90;;;;;;5072301;28;19929;-58
2022/03/13 04:53:37;;;;;;;;;;;6.30;99.90;;;;;;5072280;28;19947;-57
2022/03/13 04:56:03;;;;;;;;;;;6.30;99.90;;;;;;5071263;28;19925;-57
2022/03/13 04:58:28;;;;;;;;;;;6.30;99.90;;;;;;5071897;28;19924;-59
2022/03/13 05:00:54;;;;;;;;;;;6.30;99.90;;;;;;5071818;28;20306;-59
2022/03/13 05:03:19;;;;;;;;;;;6.30;99.90;;;;;;5071868;28;19978;-59
2022/03/13 05:05:45;;;;;;;;;;;6.30;99.90;;;;;;5072097;28;20289;-57
2022/03/13 05:08:14;;;;;;;;;;;6.20;99.90;;;;;;5072102;28;19983;-58
2022/03/13 05:10:40;;;;;;;;;;;6.20;99.90;;;;;;5072071;28;19951;-58
2022/03/13 05:13:07;;;;;;;;;;;6.20;99.90;;;;;;5071616;28;19924;-57
2022/03/13 05:15:33;;;;;;;;;;;6.20;99.90;;;;;;5071487;28;20349;-59
2022/03/13 05:18:00;;;;;;;;;;;6.10;99.90;;;;;;5071924;28;20011;-57
2022/03/13 05:20:26;;;;;;;;;;;6.10;99.90;;;;;;5071405;28;20473;-58
2022/03/13 05:22:51;;;;;;;;;;;6.10;99.90;;;;;;5054104;28;19929;-59
2022/03/13 05:25:17;;;;;;;;;;;6.10;99.90;;;;;;5071696;28;19929;-59
2022/03/13 05:27:43;;;;;;;;;;;6.10;99.90;;;;;;5072139;28;19924;-59
2022/03/13 05:30:09;;;;;;;;;;;6.00;99.90;;;;;;5071960;28;19967;-57
2022/03/13 05:32:35;;;;;;;;;;;6.00;99.90;;;;;;5071790;28;19925;-59
2022/03/13 05:35:04;;;;;;;;;;;6.00;99.90;;;;;;5071941;28;19932;-58
2022/03/13 05:37:30;;;;;;;;;;;6.00;99.90;;;;;;5071659;28;19920;-58
2022/03/13 05:39:56;;;;;;;;;;;6.00;99.90;;;;;;5071770;28;20284;-59
2022/03/13 05:42:24;;;;;;;;;;;5.90;99.90;;;;;;5071470;28;19924;-59
2022/03/13 05:44:53;;;;;;;;;;;5.90;99.90;;;;;;5071466;28;19925;-58
2022/03/13 05:47:19;;;;;;;;;;;5.90;99.90;;;;;;5071830;28;19935;-62
2022/03/13 05:49:45;;;;;;;;;;;5.90;99.90;;;;;;5070856;28;19924;-57
2022/03/13 05:52:14;;;;;;;;;;;6.00;99.90;;;;;;5070439;28;19924;-61
2022/03/13 05:54:40;;;;;;;;;;;5.90;99.90;;;;;;5104250;28;19924;-60
2022/03/13 05:57:08;;;;;;;;;;;5.70;99.90;;;;;;5070667;28;19931;-57
2022/03/13 05:59:35;;;;;;;;;;;5.90;99.90;;;;;;5072917;28;19963;-58
2022/03/13 06:02:02;;;;;;;;;;;5.90;99.90;;;;;;5075892;28;19932;-58
2022/03/13 06:04:28;;;;;;;;;;;5.90;99.90;;;;;;5075398;28;19970;-60
2022/03/13 06:06:53;;;;;;;;;;;5.90;99.90;;;;;;5076146;28;20262;-58
2022/03/13 06:09:19;;;;;;;;;;;6.00;99.90;;;;;;5074530;28;19925;-57
2022/03/13 06:11:44;;;;;;;;;;;6.00;99.90;;;;;;5075539;28;19925;-60
2022/03/13 06:14:10;;;;;;;;;;;6.00;99.90;;;;;;5057260;28;19924;-59
2022/03/13 06:16:36;;;;;;;;;;;5.90;99.90;;;;;;5074998;28;20448;-60
2022/03/13 06:19:01;;;;;;;;;;;5.90;99.90;;;;;;5074408;28;20019;-59
2022/03/13 06:21:27;;;;;;;;;;;5.90;99.90;;;;;;5075349;28;20339;-60
2022/03/13 06:23:52;;;;;;;;;;;5.90;99.90;;;;;;5075187;28;19936;-60
2022/03/13 06:26:18;;;;;;;;;;;5.90;99.90;;;;;;5075078;28;19931;-60
2022/03/13 06:28:44;;;;;;;;;;;6.00;99.90;;;;;;5075031;28;19925;-60
2022/03/13 06:31:10;;;;;;;;;;;6.00;99.90;;;;;;5075246;28;19924;-58
2022/03/13 06:33:36;;;;;;;;;;;5.90;99.90;;;;;;5074730;28;19925;-58
2022/03/13 06:36:02;;;;;;;;;;;5.90;99.90;;;;;;5057347;28;19947;-58
2022/03/13 06:38:27;;;;;;;;;;;6.00;99.90;;;;;;5074588;28;19932;-60
2022/03/13 06:40:53;;;;;;;;;;;6.00;99.90;;;;;;5075102;28;19924;-61
2022/03/13 06:43:19;;;;;;;;;;;5.90;99.90;;;;;;5074149;28;19928;-58
2022/03/13 06:45:45;;;;;;;;;;;5.90;99.90;;;;;;5073590;28;20317;-59
2022/03/13 06:48:11;;;;;;;;;;;5.90;99.90;;;;;;5074003;28;19935;-60
2022/03/13 06:50:37;;;;;;;;;;;5.90;99.90;;;;;;5073567;28;19929;-60
2022/03/13 06:53:03;;;;;;;;;;;6.00;99.90;;;;;;5074886;28;19931;-58
2022/03/13 06:55:28;;;;;;;;;;;6.00;99.90;;;;;;5073461;28;20314;-64
2022/03/13 06:57:54;;;;;;;;;;;6.00;99.90;;;;;;5074521;28;19932;-61
2022/03/13 07:00:20;;;;;;;;;;;6.00;99.90;;;;;;5074686;28;19925;-59
2022/03/13 07:02:45;;;;;;;;;;;6.00;99.90;;;;;;5074704;28;19928;-59
2022/03/13 07:05:11;;;;;;;;;;;6.10;99.90;;;;;;5073562;28;20373;-60
2022/03/13 07:07:37;;;;;;;;;;;6.10;99.90;;;;;;5074154;28;19924;-59
2022/03/13 07:10:04;;;;;;;;;;;6.10;99.90;;;;;;5072976;28;20029;-60
2022/03/13 07:12:29;;;;;;;;;;;6.20;99.90;;;;;;5073624;28;20003;-60
2022/03/13 07:14:57;;;;;;;;;;;6.20;99.90;;;;;;5074723;28;19936;-60
2022/03/13 07:17:23;;;;;;;;;;;6.20;99.90;;;;;;5073365;28;19931;-60
2022/03/13 07:19:48;;;;;;;;;;;6.30;99.90;;;;;;5072652;28;19924;-59
2022/03/13 07:22:15;;;;;;;;;;;6.30;99.90;;;;;;5073922;28;19924;-60
2022/03/13 07:24:41;;;;;;;;;;;6.30;99.90;;;;;;5073753;28;20306;-60
2022/03/13 07:27:07;;;;;;;;;;;6.30;99.90;;;;;;5072944;28;19924;-59
2022/03/13 07:29:33;;;;;;;;;;;6.30;99.90;;;;;;5072492;28;20018;-59
2022/03/13 07:31:59;;;;;;;;;;;6.40;99.90;;;;;;5073851;28;20378;-59
2022/03/13 07:34:26;;;;;;;;;;;6.40;99.90;;;;;;5074198;28;19932;-58
2022/03/13 07:36:52;;;;;;;;;;;6.40;99.90;;;;;;5073576;28;20005;-58
2022/03/13 07:39:18;;;;;;;;;;;6.40;99.90;;;;;;5072373;28;19932;-59
2022/03/13 07:41:44;;;;;;;;;;;6.40;99.90;;;;;;5072295;28;19924;-59
2022/03/13 07:44:10;;;;;;;;;;;6.40;99.90;;;;;;5072862;28;19924;-59
2022/03/13 07:46:36;;;;;;;;;;;6.40;99.90;;;;;;5073690;28;19924;-59
2022/03/13 07:49:01;;;;;;;;;;;6.50;99.90;;;;;;5073726;28;19924;-59
2022/03/13 07:51:27;;;;;;;;;;;6.50;99.90;;;;;;5072950;28;20217;-59
2022/03/13 07:53:53;;;;;;;;;;;6.60;99.90;;;;;;5073444;28;20390;-58
2022/03/13 07:56:19;;;;;;;;;;;6.60;99.90;;;;;;5073507;28;19959;-58
2022/03/13 07:58:44;;;;;;;;;;;6.70;99.90;;;;;;5072913;28;20431;-59
2022/03/13 08:01:10;;;;;;;;;;;6.80;99.90;;;;;;5073527;28;19929;-59
2022/03/13 08:03:36;;;;;;;;;;;7.00;99.90;;;;;;5073336;28;20374;-61
2022/03/13 08:06:05;;;;;;;;;;;7.20;99.90;;;;;;5073634;28;20066;-59
2022/03/13 08:08:31;;;;;;;;;;;7.30;99.90;;;;;;5072422;28;20015;-59
2022/03/13 08:10:57;;;;;;;;;;;7.40;99.90;;;;;;5072819;28;20358;-59
2022/03/13 08:13:23;;;;;;;;;;;7.50;99.90;;;;;;5073209;28;20390;-56
2022/03/13 08:15:49;;;;;;;;;;;7.50;99.90;;;;;;5071511;28;19928;-59
2022/03/13 08:18:14;;;;;;;;;;;7.60;99.90;;;;;;5073608;28;19931;-59
2022/03/13 08:20:40;;;;;;;;;;;7.80;99.90;;;;;;5072900;28;20452;-58
2022/03/13 08:23:06;;;;;;;;;;;8.10;99.90;;;;;;5072206;28;19931;-59
2022/03/13 08:25:31;;;;;;;;;;;8.50;99.90;;;;;;5073177;28;20270;-60
2022/03/13 08:27:57;;;;;;;;;;;8.90;99.60;;;;;;5072775;28;19931;-59
2022/03/13 08:30:23;;;;;;;;;;;9.20;99.00;;;;;;5072755;28;19925;-58
2022/03/13 08:32:49;;;;;;;;;;;9.50;98.30;;;;;;5071414;28;20374;-60
2022/03/13 08:35:14;;;;;;;;;;;9.50;97.60;;;;;;5071725;28;20015;-59
2022/03/13 08:37:40;;;;;;;;;;;9.50;96.80;;;;;;5071538;28;19928;-62
2022/03/13 08:40:06;;;;;;;;;;;9.60;96.70;;;;;;5071715;28;19924;-60
2022/03/13 08:42:32;;;;;;;;;;;9.50;95.90;;;;;;5071752;28;19928;-60
2022/03/13 08:44:58;;;;;;;;;;;9.60;94.90;;;;;;5071465;28;19947;-59
2022/03/13 08:47:24;;;;;;;;;;;9.60;94.60;;;;;;5072780;28;19924;-61
2022/03/13 08:49:50;;;;;;;;;;;9.80;94.10;;;;;;5072540;28;20397;-59
2022/03/13 08:52:16;;;;;;;;;;;10.40;94.20;;;;;;5071520;28;19924;-60
2022/03/13 08:54:42;;;;;;;;;;;10.80;93.00;;;;;;5072568;28;19929;-61
2022/03/13 08:57:07;;;;;;;;;;;11.10;92.80;;;;;;5072698;28;20019;-60
2022/03/13 08:59:36;;;;;;;;;;;11.70;91.80;;;;;;5072614;28;19977;-60
2022/03/13 09:02:02;;;;;;;;;;;12.20;90.60;;;;;;5072243;28;19971;-58
2022/03/13 09:04:28;;;;;;;;;;;12.50;88.00;;;;;;5072109;28;20364;-60
2022/03/13 09:06:54;;;;;;;;;;;12.70;86.70;;;;;;5071024;28;19925;-60
2022/03/13 09:09:20;;;;;;;;;;;12.70;84.30;;;;;;5071017;28;20369;-57
2022/03/13 09:11:47;;;;;;;;;;;12.40;83.80;;;;;;5071940;28;19924;-59
2022/03/13 09:14:13;;;;;;;;;;;12.10;84.30;;;;;;5070101;28;19924;-59
2022/03/13 09:16:40;;;;;;;;;;;11.70;83.00;;;;;;5072306;28;19931;-59
2022/03/13 09:19:05;;;;;;;;;;;11.60;83.00;;;;;;5071734;28;19929;-60
2022/03/13 09:21:33;;;;;;;;;;;11.60;83.80;;;;;;5072148;28;20332;-59
2022/03/13 09:24:00;;;;;;;;;;;11.60;83.90;;;;;;5054007;28;20472;-59
2022/03/13 09:26:26;;;;;;;;;;;11.50;84.20;;;;;;5071892;28;19965;-58
2022/03/13 09:28:51;;;;;;;;;;;11.40;83.70;;;;;;5053929;28;20350;-61
2022/03/13 09:31:17;;;;;;;;;;;11.30;84.00;;;;;;5054171;28;19935;-60
2022/03/13 09:33:43;;;;;;;;;;;11.30;83.20;;;;;;5070635;28;20019;-59
2022/03/13 09:36:08;;;;;;;;;;;11.30;83.10;;;;;;5070247;28;19924;-59
2022/03/13 09:38:34;;;;;;;;;;;11.30;83.20;;;;;;5070819;28;20414;-59
2022/03/13 09:40:59;;;;;;;;;;;11.50;83.30;;;;;;5070337;28;19926;-59
2022/03/13 09:43:25;;;;;;;;;;;11.60;82.20;;;;;;5054049;28;19935;-57
2022/03/13 09:45:50;;;;;;;;;;;11.70;82.10;;;;;;5053193;28;20278;-59
2022/03/13 09:48:18;;;;;;;;;;;11.90;82.20;;;;;;5070590;28;20362;-59
2022/03/13 09:50:44;;;;;;;;;;;11.90;81.10;;;;;;5070749;28;19972;-59
2022/03/13 09:53:10;;;;;;;;;;;12.00;79.60;;;;;;5071620;28;20019;-60
2022/03/13 09:55:36;;;;;;;;;;;11.90;80.10;;;;;;5070629;28;19925;-60
2022/03/13 09:58:02;;;;;;;;;;;11.90;79.80;;;;;;5071317;28;19931;-60
2022/03/13 10:00:27;;;;;;;;;;;11.90;80.20;;;;;;5071720;28;19970;-60
2022/03/13 10:02:53;;;;;;;;;;;12.10;80.50;;;;;;5053708;28;19924;-59
2022/03/13 10:05:20;;;;;;;;;;;12.20;80.10;;;;;;5071777;28;19924;-59
2022/03/13 10:07:49;;;;;;;;;;;12.20;79.80;;;;;;5071672;28;19925;-59
2022/03/13 10:10:15;;;;;;;;;;;12.30;79.20;;;;;;5070022;28;20370;-59
2022/03/13 10:12:41;;;;;;;;;;;12.30;78.80;;;;;;5071417;28;19977;-60
2022/03/13 10:15:07;;;;;;;;;;;12.30;78.60;;;;;;5071401;28;20286;-60
2022/03/13 10:17:37;;;;;;;;;;;12.40;79.20;;;;;;5071740;28;19932;-60
2022/03/13 10:20:14;;;;;;;;;;;12.40;78.80;;;;;;5071251;28;19925;-56
2022/03/13 10:22:40;;;;;;;;;;;12.50;78.80;;;;;;5071224;28;20335;-59
2022/03/13 10:25:05;;;;;;;;;;;12.40;79.00;;;;;;5070827;28;20015;-58
2022/03/13 10:27:34;;;;;;;;;;;12.40;79.60;;;;;;5070314;28;20017;-59
2022/03/13 10:30:00;;;;;;;;;;;12.50;79.20;;;;;;5052957;28;20019;-60
2022/03/13 10:32:26;;;;;;;;;;;12.60;79.00;;;;;;5071485;28;19931;-60
2022/03/13 10:34:54;;;;;;;;;;;12.80;80.00;;;;;;5071627;28;20377;-60
2022/03/13 10:37:38;;;;;;;;;;;12.90;79.10;;;;;;5070632;28;20011;-61
2022/03/13 10:40:04;;;;;;;;;;;13.00;78.70;;;;;;5070645;28;20366;-60
2022/03/13 10:42:30;;;;;;;;;;;13.00;78.80;;;;;;5069902;28;20397;-58
2022/03/13 10:45:02;;;;;;;;;;;13.00;78.90;;;;;;5071254;28;20312;-60
2022/03/13 10:47:31;;;;;;;;;;;13.10;78.30;;;;;;5075172;28;20019;-56
2022/03/13 10:49:57;;;;;;;;;;;13.10;78.00;;;;;;5056992;28;19961;-59
2022/03/13 10:52:25;;;;;;;;;;;13.10;77.40;;;;;;5074806;28;19924;-59
2022/03/13 10:54:51;;;;;;;;;;;13.20;76.60;;;;;;5074903;28;20008;-59
2022/03/13 10:57:17;;;;;;;;;;;13.30;76.50;;;;;;5074179;28;19982;-61
2022/03/13 10:59:43;;;;;;;;;;;13.30;76.30;;;;;;5073655;28;19993;-59
2022/03/13 11:02:16;;;;;;;;;;;13.50;76.30;;;;;;5056952;28;20005;-58
2022/03/13 11:04:49;;;;;;;;;;;13.50;75.90;;;;;;5074923;28;20032;-58
2022/03/13 11:07:14;;;;;;;;;;;13.70;76.70;;;;;;5056574;28;19924;-59
2022/03/13 11:09:40;;;;;;;;;;;13.80;77.00;;;;;;5074918;28;19924;-60
2022/03/13 11:12:09;;;;;;;;;;;14.00;76.90;;;;;;5074510;28;19971;-60
2022/03/13 11:14:35;;;;;;;;;;;14.10;76.40;;;;;;5074813;28;20011;-57
2022/03/13 11:17:01;;;;;;;;;;;14.10;75.70;;;;;;5074050;28;19928;-60
2022/03/13 11:19:28;;;;;;;;;;;14.20;75.10;;;;;;5073404;28;19951;-60
2022/03/13 11:21:54;;;;;;;;;;;14.30;75.50;;;;;;5056073;28;20296;-59
2022/03/13 11:24:21;;;;;;;;;;;14.30;74.70;;;;;;5056359;28;19947;-59
2022/03/13 11:26:49;;;;;;;;;;;14.30;75.20;;;;;;5073872;28;20394;-60
2022/03/13 11:29:15;;;;;;;;;;;14.30;75.60;;;;;;5073695;28;19932;-59
2022/03/13 11:31:42;;;;;;;;;;;14.40;75.60;;;;;;5073164;28;19929;-60
2022/03/13 11:34:14;;;;;;;;;;;14.40;75.70;;;;;;5056138;28;19924;-59
2022/03/13 11:36:41;;;;;;;;;;;14.50;75.00;;;;;;5074173;28;19932;-59
2022/03/13 11:39:08;;;;;;;;;;;14.50;74.50;;;;;;5073887;28;20013;-59
2022/03/13 11:41:38;;;;;;;;;;;14.50;74.80;;;;;;5073148;28;19928;-59
2022/03/13 11:44:16;;;;;;;;;;;14.60;74.80;;;;;;5073595;28;20018;-61
2022/03/13 11:46:43;;;;;;;;;;;14.60;74.60;;;;;;5073956;28;19928;-57
2022/03/13 11:49:27;;;;;;;;;;;14.80;74.00;;;;;;5073447;28;19975;-58
2022/03/13 11:52:17;;;;;;;;;;;14.80;73.80;;;;;;5073852;28;19931;-59
2022/03/13 11:55:04;;;;;;;;;;;14.80;73.20;;;;;;5073804;28;20019;-59
2022/03/13 11:57:43;;;;;;;;;;;14.80;73.20;;;;;;5072051;28;19933;-58
2022/03/13 12:00:14;;;;;;;;;;;14.80;73.50;;;;;;5073108;28;19924;-58
2022/03/13 12:02:40;;;;;;;;;;;14.90;73.90;;;;;;5073512;28;19969;-58
2022/03/13 12:05:26;;;;;;;;;;;14.90;73.50;;;;;;5072933;28;20003;-59
2022/03/13 12:07:56;;;;;;;;;;;15.00;73.30;;;;;;5065158;28;20011;-59
2022/03/13 12:10:29;;;;;;;;;;;15.00;73.00;;;;;;5073066;28;19978;-59
2022/03/13 12:13:05;;;;;;;;;;;15.00;73.50;;;;;;5072084;28;19980;-59
2022/03/13 12:15:30;;;;;;;;;;;15.00;73.00;;;;;;5072930;28;19946;-58
2022/03/13 12:18:01;;;;;;;;;;;15.00;73.10;;;;;;5055693;28;19924;-59
2022/03/13 12:20:28;;;;;;;;;;;15.00;73.30;;;;;;5072774;28;19925;-57
2022/03/13 12:22:55;;;;;;;;;;;15.00;73.60;;;;;;5073015;28;19954;-59
2022/03/13 12:25:21;;;;;;;;;;;14.90;74.30;;;;;;5054969;28;19971;-58
2022/03/13 12:27:47;;;;;;;;;;;14.90;74.80;;;;;;5073031;28;19947;-58
2022/03/13 12:30:15;;;;;;;;;;;14.90;75.00;;;;;;5054909;28;19925;-58
2022/03/13 12:32:41;;;;;;;;;;;15.00;75.40;;;;;;5071878;28;19929;-58
2022/03/13 12:35:07;;;;;;;;;;;15.00;74.50;;;;;;5070907;28;20278;-57
2022/03/13 12:37:32;;;;;;;;;;;15.00;74.00;;;;;;5072174;28;19946;-55
2022/03/13 12:40:00;;;;;;;;;;;14.90;73.80;;;;;;5072652;28;19977;-55
2022/03/13 12:42:34;;;;;;;;;;;14.90;74.40;;;;;;5071773;28;19963;-58
2022/03/13 12:45:00;;;;;;;;;;;14.90;73.80;;;;;;5072251;28;19925;-56
2022/03/13 12:47:29;;;;;;;;;;;14.90;73.30;;;;;;5071632;28;19995;-58
2022/03/13 12:49:58;;;;;;;;;;;14.80;72.80;;;;;;5070807;28;19978;-57
2022/03/13 12:52:24;;;;;;;;;;;14.80;73.00;;;;;;5072054;28;19935;-56
2022/03/13 12:54:54;;;;;;;;;;;14.70;72.50;;;;;;5072755;28;19935;-56
2022/03/13 12:57:21;;;;;;;;;;;14.70;73.10;;;;;;5071188;28;19925;-57
2022/03/13 12:59:48;;;;;;;;;;;14.70;72.60;;;;;;5071036;28;20404;-56
2022/03/13 13:02:25;;;;;;;;;;;14.70;72.00;;;;;;5072047;28;19967;-58
2022/03/13 13:04:51;;;;;;;;;;;14.70;72.00;;;;;;5072619;28;19972;-58
2022/03/13 13:07:18;;;;;;;;;;;14.60;72.50;;;;;;5071955;28;19925;-58
2022/03/13 13:09:44;;;;;;;;;;;14.60;71.20;;;;;;5072049;28;20285;-57
2022/03/13 13:12:10;;;;;;;;;;;14.70;70.70;;;;;;5071028;28;19965;-57
2022/03/13 13:14:38;;;;;;;;;;;14.60;70.90;;;;;;5072094;28;19925;-58
2022/03/13 13:17:08;;;;;;;;;;;14.50;70.90;;;;;;5072248;28;19931;-58
2022/03/13 13:19:41;;;;;;;;;;;14.50;71.20;;;;;;5071596;28;20122;-58
2022/03/13 13:22:07;;;;;;;;;;;14.60;71.20;;;;;;5072190;28;19990;-58
2022/03/13 13:24:36;;;;;;;;;;;14.60;71.00;;;;;;5070830;28;19924;-58
2022/03/13 13:27:02;;;;;;;;;;;14.60;69.70;;;;;;5072185;28;19985;-58
2022/03/13 13:29:32;;;;;;;;;;;14.60;69.10;;;;;;5071907;28;19925;-58
2022/03/13 13:32:16;;;;;;;;;;;14.50;70.10;;;;;;5072009;28;19925;-57
2022/03/13 13:34:44;;;;;;;;;;;14.60;69.80;;;;;;5071600;28;20458;-59
2022/03/13 13:37:09;;;;;;;;;;;14.60;69.20;;;;;;5070617;28;20023;-56
2022/03/13 13:39:35;;;;;;;;;;;14.50;69.30;;;;;;5071681;28;20478;-56
2022/03/13 13:42:02;;;;;;;;;;;14.50;69.90;;;;;;5070822;28;19954;-57
2022/03/13 13:44:31;;;;;;;;;;;14.50;69.40;;;;;;5071632;28;20254;-59
2022/03/13 13:47:05;;;;;;;;;;;14.50;69.50;;;;;;5071781;28;20389;-55
2022/03/13 13:49:32;;;;;;;;;;;14.50;69.50;;;;;;5071921;28;19924;-58
2022/03/13 13:52:10;;;;;;;;;;;14.60;69.30;;;;;;5071940;28;19924;-56
2022/03/13 13:54:36;;;;;;;;;;;14.60;69.50;;;;;;5071603;28;20305;-58
2022/03/13 13:57:02;;;;;;;;;;;14.60;69.30;;;;;;5070797;28;19931;-58
2022/03/13 13:59:38;;;;;;;;;;;14.60;69.30;;;;;;5069953;28;20443;-52
2022/03/13 14:02:04;;;;;;;;;;;14.70;69.10;;;;;;5071272;28;20369;-55
2022/03/13 14:04:30;;;;;;;;;;;14.70;68.70;;;;;;5071591;28;20023;-59
2022/03/13 14:06:56;;;;;;;12.45;8.13;;;14.70;68.50;;;;;;5071197;28;20380;-59
2022/03/13 14:09:23;;;;;;;14.05;9.20;;;14.70;69.00;;;;;;5070806;28;20045;-59
2022/03/13 14:11:49;;;;;;;14.00;8.73;;;14.70;68.70;;;;;;5071321;28;20127;-59
2022/03/13 14:14:15;;;;;;;14.30;9.60;;;14.70;68.80;;;;;;5071508;28;20095;-55
2022/03/13 14:16:43;;;;;;;12.98;9.23;;;14.80;69.10;;;;;;5070709;28;20510;-55
2022/03/13 14:19:10;;;;;;;14.77;9.95;;;14.80;69.10;;;;;;5071132;28;20167;-56
2022/03/13 14:21:36;;;;;;;13.45;9.55;;;14.90;69.40;;;;;;5055406;28;20048;-56